Time;durP1;ratioP1;P1;durP2;ratioP2;P2;SDS_P1;SDS_P2;PMS_P1;PMS_P2;Temp;Humidity;BMP_temperature;BMP_pressure;BME280_temperature;BME280_humidity;BME280_pressure;Samples;Min_cycle;Max_cycle;Signal;HPM_P1;HPM_P2
2023/09/14 00:02:07;;;;;;;1.30;1.00;;;23.50;93.30;;;;;;5008314;28;20513;-92
2023/09/14 00:04:36;;;;;;;1.10;1.00;;;23.50;93.30;;;;;;5012943;28;20187;-92
2023/09/14 00:07:01;;;;;;;1.40;1.20;;;23.50;93.30;;;;;;5005372;28;20578;-92
2023/09/14 00:09:28;;;;;;;1.20;1.10;;;23.50;93.30;;;;;;5012974;28;20204;-92
2023/09/14 00:11:53;;;;;;;1.10;1.00;;;23.50;93.30;;;;;;5007371;28;20205;-92
2023/09/14 00:14:19;;;;;;;1.20;1.10;;;23.50;93.30;;;;;;4996728;28;20201;-92
2023/09/14 00:16:46;;;;;;;1.33;1.10;;;23.50;93.30;;;;;;5006936;28;20166;-92
2023/09/14 00:19:12;;;;;;;1.10;1.00;;;23.40;93.30;;;;;;4995484;28;20379;-92
2023/09/14 00:21:42;;;;;;;1.27;1.13;;;23.40;93.30;;;;;;5007400;28;20307;-92
2023/09/14 00:24:07;;;;;;;1.43;1.20;;;23.40;93.30;;;;;;4995151;28;20476;-92
2023/09/14 00:26:33;;;;;;;1.70;0.90;;;23.40;93.30;;;;;;5008850;28;20566;-92
2023/09/14 00:28:59;;;;;;;1.30;1.20;;;23.40;93.30;;;;;;5016248;28;20186;-91
2023/09/14 00:31:25;;;;;;;1.67;1.00;;;23.40;93.30;;;;;;5020068;28;20216;-92
2023/09/14 00:33:50;;;;;;;1.20;1.00;;;23.40;93.30;;;;;;5032904;28;20189;-91
2023/09/14 00:36:16;;;;;;;1.67;1.20;;;23.30;93.20;;;;;;5006018;28;20276;-92
2023/09/14 00:38:41;;;;;;;2.43;1.30;;;23.30;93.30;;;;;;5010738;28;20177;-91
2023/09/14 00:41:07;;;;;;;2.90;1.20;;;23.30;93.30;;;;;;5012652;28;20173;-92
2023/09/14 00:43:34;;;;;;;1.20;1.10;;;23.30;93.20;;;;;;5004622;28;20650;-92
2023/09/14 00:46:01;;;;;;;1.80;1.00;;;23.30;93.30;;;;;;4999651;28;20173;-92
2023/09/14 00:48:28;;;;;;;1.07;0.90;;;23.30;93.30;;;;;;5038476;28;20574;-92
2023/09/14 00:50:54;;;;;;;1.07;0.90;;;23.30;93.30;;;;;;5012352;28;20220;-92
2023/09/14 00:53:20;;;;;;;1.67;1.10;;;23.30;93.20;;;;;;5004639;28;20509;-91
2023/09/14 00:55:46;;;;;;;1.57;1.20;;;23.20;93.20;;;;;;4995005;28;20177;-92
2023/09/14 00:58:15;;;;;;;1.50;1.17;;;23.20;93.20;;;;;;5005750;28;20268;-91
2023/09/14 01:00:59;;;;;;;1.17;1.03;;;23.20;93.30;;;;;;5012866;28;20232;-92
2023/09/14 01:03:24;;;;;;;1.20;1.10;;;23.20;93.20;;;;;;5002768;28;20543;-91
2023/09/14 01:05:50;;;;;;;1.37;1.10;;;23.20;93.20;;;;;;4993544;28;20185;-91
2023/09/14 01:08:16;;;;;;;1.20;1.07;;;23.20;93.20;;;;;;5038428;28;20177;-92
2023/09/14 01:14:17;;;;;;;1.40;1.20;;;23.20;93.20;;;;;;5024248;28;20243;-91
2023/09/14 01:17:47;;;;;;;1.20;1.10;;;23.20;93.20;;;;;;5014971;28;20175;-92
2023/09/14 01:21:05;;;;;;;1.20;1.10;;;23.20;93.20;;;;;;4998357;28;20185;-92
2023/09/14 01:24:24;;;;;;;1.60;1.00;;;23.10;93.20;;;;;;4988054;28;20173;-92
2023/09/14 01:26:51;;;;;;;1.30;1.20;;;23.10;93.10;;;;;;5032368;28;20184;-92
2023/09/14 01:29:16;;;;;;;1.10;1.00;;;23.10;93.20;;;;;;5038638;28;20177;-91
2023/09/14 01:31:54;;;;;;;1.80;1.10;;;23.10;93.10;;;;;;5016496;28;20227;-92
2023/09/14 01:34:23;;;;;;;1.50;1.10;;;23.10;93.20;;;;;;5005546;28;20254;-91
2023/09/14 01:36:59;;;;;;;1.50;1.20;;;23.10;93.10;;;;;;5014494;28;20543;-92
2023/09/14 01:39:25;;;;;;;1.10;1.00;;;23.10;93.10;;;;;;5001379;28;20283;-91
2023/09/14 01:41:55;;;;;;;1.20;1.10;;;23.10;93.20;;;;;;5016925;28;20169;-91
2023/09/14 01:44:25;;;;;;;1.20;1.10;;;23.10;93.10;;;;;;5005439;28;20181;-92
2023/09/14 01:46:51;;;;;;;1.30;1.20;;;23.10;93.10;;;;;;4993909;28;20519;-91
2023/09/14 01:49:17;;;;;;;1.27;1.00;;;23.00;93.10;;;;;;5002191;28;20170;-91
2023/09/14 01:51:43;;;;;;;1.70;1.30;;;23.00;93.10;;;;;;5017934;28;20251;-91
2023/09/14 01:54:08;;;;;;;1.20;1.10;;;23.00;93.10;;;;;;5012361;28;20200;-92
2023/09/14 01:56:34;;;;;;;0.90;0.83;;;23.00;93.20;;;;;;5000295;28;20269;-91
2023/09/14 01:59:00;;;;;;;1.40;1.13;;;23.00;93.10;;;;;;5005007;28;20165;-91
2023/09/14 02:01:25;;;;;;;1.20;1.03;;;23.00;93.10;;;;;;5020011;28;20212;-91
2023/09/14 02:03:51;;;;;;;1.13;1.03;;;23.00;93.10;;;;;;5020556;28;20636;-91
2023/09/14 02:06:17;;;;;;;1.07;1.00;;;23.00;93.10;;;;;;5024029;28;20174;-92
2023/09/14 02:08:43;;;;;;;1.20;1.10;;;22.90;93.10;;;;;;5001490;28;20169;-92
2023/09/14 02:11:08;;;;;;;1.10;1.00;;;22.90;93.10;;;;;;5008535;28;20209;-92
2023/09/14 02:13:37;;;;;;;2.30;1.23;;;22.90;93.10;;;;;;5016987;28;20259;-91
2023/09/14 02:16:03;;;;;;;2.03;1.00;;;22.90;93.10;;;;;;5025986;28;20169;-91
2023/09/14 02:18:29;;;;;;;1.17;1.07;;;22.90;93.00;;;;;;5015097;28;20179;-91
2023/09/14 02:20:55;;;;;;;1.30;1.20;;;22.90;93.00;;;;;;5009389;28;20218;-92
2023/09/14 02:23:20;;;;;;;1.20;1.10;;;22.90;93.00;;;;;;4999369;28;20246;-91
2023/09/14 02:25:49;;;;;;;1.30;1.17;;;22.90;93.00;;;;;;5011070;28;20174;-92
2023/09/14 02:28:15;;;;;;;1.07;0.97;;;22.90;93.00;;;;;;4999547;28;20564;-92
2023/09/14 02:30:41;;;;;;;1.30;1.00;;;22.90;93.10;;;;;;5010042;28;20212;-92
2023/09/14 02:33:08;;;;;;;1.10;1.00;;;22.80;93.00;;;;;;4997811;28;20186;-92
2023/09/14 02:35:34;;;;;;;1.17;1.07;;;22.80;93.00;;;;;;5006345;28;20199;-92
2023/09/14 02:38:00;;;;;;;1.30;1.20;;;22.80;93.00;;;;;;4998792;28;20170;-91
2023/09/14 02:40:25;;;;;;;1.30;1.20;;;22.80;93.00;;;;;;5019751;28;20264;-91
2023/09/14 02:42:51;;;;;;;1.50;1.20;;;22.80;93.00;;;;;;5013038;28;20418;-91
2023/09/14 02:45:17;;;;;;;1.30;1.00;;;22.80;93.00;;;;;;5010786;28;20450;-92
2023/09/14 02:47:43;;;;;;;1.27;1.10;;;22.80;93.00;;;;;;5028200;28;20573;-92
2023/09/14 02:50:08;;;;;;;1.53;1.10;;;22.70;93.00;;;;;;5013788;28;20196;-91
2023/09/14 02:52:34;;;;;;;1.30;1.20;;;22.80;93.00;;;;;;5006713;28;20184;-91
2023/09/14 02:55:00;;;;;;;0.90;0.90;;;22.70;93.00;;;;;;5015837;28;20378;-91
2023/09/14 02:57:25;;;;;;;1.20;1.10;;;22.70;93.00;;;;;;5006899;28;20432;-91
2023/09/14 02:59:55;;;;;;;1.10;1.00;;;22.70;92.90;;;;;;5015749;28;20226;-91
2023/09/14 03:02:24;;;;;;;1.20;1.10;;;22.70;92.90;;;;;;5006898;28;20173;-91
2023/09/14 03:04:50;;;;;;;1.30;1.20;;;22.70;92.90;;;;;;5017091;28;20173;-91
2023/09/14 03:07:16;;;;;;;1.13;1.03;;;22.70;92.80;;;;;;5004060;28;20205;-91
2023/09/14 03:09:42;;;;;;;1.20;1.10;;;22.70;92.80;;;;;;5033890;28;20175;-91
2023/09/14 03:12:09;;;;;;;1.17;1.00;;;22.70;92.90;;;;;;5005433;28;20181;-91
2023/09/14 03:14:34;;;;;;;1.10;1.00;;;22.60;92.80;;;;;;5017588;28;20558;-91
2023/09/14 03:17:00;;;;;;;1.40;1.30;;;22.60;92.80;;;;;;5007233;28;20170;-91
2023/09/14 03:19:26;;;;;;;2.77;1.17;;;22.60;92.90;;;;;;5033569;28;20177;-91
2023/09/14 03:21:52;;;;;;;2.23;1.17;;;22.60;92.80;;;;;;5008262;28;20456;-91
2023/09/14 03:24:18;;;;;;;1.10;1.00;;;22.60;92.80;;;;;;5012027;28;20266;-91
2023/09/14 03:26:43;;;;;;;1.20;1.00;;;22.60;92.90;;;;;;5043617;28;20188;-91
2023/09/14 03:29:09;;;;;;;1.63;1.17;;;22.60;92.80;;;;;;4996392;28;20170;-91
2023/09/14 03:31:35;;;;;;;2.13;1.20;;;22.60;92.80;;;;;;4997455;28;20587;-91
2023/09/14 03:34:00;;;;;;;1.63;1.20;;;22.60;92.90;;;;;;5006024;28;20668;-91
2023/09/14 03:36:27;;;;;;;1.77;1.10;;;22.60;92.80;;;;;;5013908;28;20201;-91
2023/09/14 03:38:53;;;;;;;2.20;1.00;;;22.60;92.80;;;;;;4995585;28;20184;-91
2023/09/14 03:41:19;;;;;;;1.20;1.10;;;22.50;92.70;;;;;;4995098;28;20397;-91
2023/09/14 03:43:45;;;;;;;1.73;1.30;;;22.50;92.80;;;;;;5007260;28;20480;-91
2023/09/14 03:46:13;;;;;;;1.40;1.03;;;22.50;92.80;;;;;;4995770;28;20220;-91
2023/09/14 03:48:39;;;;;;;1.60;1.10;;;22.50;92.80;;;;;;5006736;28;20433;-91
2023/09/14 03:51:06;;;;;;;1.07;0.97;;;22.50;92.80;;;;;;5011098;28;20216;-91
2023/09/14 03:53:32;;;;;;;1.70;1.23;;;22.50;92.80;;;;;;4994601;28;20170;-91
2023/09/14 03:55:59;;;;;;;1.30;1.20;;;22.50;92.70;;;;;;5012723;28;20245;-91
2023/09/14 03:58:26;;;;;;;2.67;1.23;;;22.50;92.70;;;;;;5018582;28;20192;-91
2023/09/14 04:00:54;;;;;;;1.20;1.10;;;22.50;92.80;;;;;;5013781;28;20173;-90
2023/09/14 04:03:19;;;;;;;1.30;1.20;;;22.50;92.70;;;;;;5024046;28;20180;-91
2023/09/14 04:05:45;;;;;;;1.20;1.10;;;22.50;92.70;;;;;;5012612;28;20459;-91
2023/09/14 04:08:11;;;;;;;1.47;1.20;;;22.50;92.70;;;;;;5009096;28;20475;-91
2023/09/14 04:10:40;;;;;;;1.53;1.20;;;22.40;92.70;;;;;;5007816;28;20364;-91
2023/09/14 04:13:29;;;;;;;1.73;1.20;;;22.40;92.70;;;;;;5011484;28;20662;-91
2023/09/14 04:15:55;;;;;;;1.33;1.20;;;22.40;92.70;;;;;;4999441;28;20181;-91
2023/09/14 04:18:23;;;;;;;1.13;1.00;;;22.40;92.60;;;;;;4999775;28;20403;-91
2023/09/14 04:20:50;;;;;;;1.17;1.07;;;22.40;92.70;;;;;;4997281;28;20522;-91
2023/09/14 04:23:16;;;;;;;1.60;1.10;;;22.40;92.60;;;;;;4999353;28;20274;-91
2023/09/14 04:25:44;;;;;;;1.37;1.13;;;22.40;92.60;;;;;;5005592;28;20201;-91
2023/09/14 04:28:18;;;;;;;1.47;1.07;;;22.40;92.70;;;;;;5012718;28;20283;-91
2023/09/14 04:30:46;;;;;;;1.97;1.20;;;22.40;92.60;;;;;;4991942;28;20208;-92
2023/09/14 04:33:13;;;;;;;1.30;1.00;;;22.40;92.60;;;;;;5028439;28;20483;-91
2023/09/14 04:35:38;;;;;;;1.50;1.10;;;22.40;92.60;;;;;;5018237;28;20630;-92
2023/09/14 04:38:08;;;;;;;1.50;1.30;;;22.40;92.60;;;;;;5012152;28;20334;-91
2023/09/14 04:40:40;;;;;;;2.20;1.33;;;22.30;92.60;;;;;;5006807;28;20223;-91
2023/09/14 04:43:06;;;;;;;1.47;1.30;;;22.30;92.50;;;;;;5045128;28;20563;-91
2023/09/14 04:45:32;;;;;;;1.10;1.00;;;22.30;92.50;;;;;;5016991;28;20224;-91
2023/09/14 04:47:59;;;;;;;1.93;1.33;;;22.30;92.50;;;;;;5011581;28;20181;-91
2023/09/14 04:50:25;;;;;;;1.13;1.03;;;22.30;92.60;;;;;;5006168;28;20217;-91
2023/09/14 04:52:50;;;;;;;2.40;1.30;;;22.30;92.50;;;;;;4991166;28;20173;-91
2023/09/14 04:55:16;;;;;;;1.63;1.10;;;22.30;92.60;;;;;;5001245;28;20203;-91
2023/09/14 04:57:42;;;;;;;2.73;1.20;;;22.30;92.50;;;;;;5010331;28;20443;-91
2023/09/14 05:00:39;;;;;;;1.60;1.17;;;22.30;92.70;;;;;;4998081;28;20397;-91
2023/09/14 05:03:05;;;;;;;1.53;1.20;;;22.30;92.80;;;;;;4972343;28;20189;-89
2023/09/14 05:05:34;;;;;;;2.60;1.13;;;22.30;92.90;;;;;;4997053;28;20270;-89
2023/09/14 05:08:00;;;;;;;1.83;1.20;;;22.30;93.00;;;;;;5007891;28;20187;-89
2023/09/14 05:10:28;;;;;;;5.10;1.40;;;22.30;93.00;;;;;;4998600;28;20216;-89
2023/09/14 05:12:54;;;;;;;4.63;1.70;;;22.30;93.00;;;;;;5003136;28;20184;-90
2023/09/14 05:15:20;;;;;;;2.43;1.80;;;22.30;93.10;;;;;;5019274;28;20212;-89
2023/09/14 05:17:45;;;;;;;2.33;2.03;;;22.20;93.00;;;;;;5003420;28;20177;-89
2023/09/14 05:20:12;;;;;;;3.53;2.20;;;22.20;93.00;;;;;;5021264;28;20449;-89
2023/09/14 05:22:38;;;;;;;3.50;2.37;;;22.20;93.00;;;;;;5032347;28;20616;-90
2023/09/14 05:25:07;;;;;;;4.07;2.83;;;22.20;93.00;;;;;;4997136;28;20180;-89
2023/09/14 05:27:40;;;;;;;4.43;2.40;;;22.20;93.00;;;;;;4990202;28;20399;-90
2023/09/14 05:30:08;;;;;;;4.33;2.60;;;22.20;93.00;;;;;;5003428;28;20174;-90
2023/09/14 05:32:34;;;;;;;5.07;2.90;;;22.20;93.10;;;;;;5000508;28;20285;-89
2023/09/14 05:35:00;;;;;;;4.40;2.60;;;22.20;93.10;;;;;;4992171;28;20178;-89
2023/09/14 05:37:27;;;;;;;4.13;2.90;;;22.20;93.10;;;;;;4999353;28;20177;-90
2023/09/14 05:39:54;;;;;;;4.53;2.90;;;22.20;93.10;;;;;;4986602;28;20188;-90
2023/09/14 05:42:21;;;;;;;5.13;3.00;;;22.20;93.10;;;;;;4998418;28;20657;-89
2023/09/14 05:44:48;;;;;;;3.30;2.73;;;22.20;93.10;;;;;;4988282;28;20212;-89
2023/09/14 05:47:14;;;;;;;7.20;2.70;;;22.20;93.00;;;;;;5001090;28;20358;-90
2023/09/14 05:49:40;;;;;;;3.53;3.03;;;22.10;93.00;;;;;;4985811;28;20243;-90
2023/09/14 05:52:06;;;;;;;6.00;3.53;;;22.20;93.10;;;;;;5002287;28;20238;-89
2023/09/14 05:54:31;;;;;;;5.43;3.77;;;22.20;93.10;;;;;;5008590;28;20170;-90
2023/09/14 05:56:57;;;;;;;5.40;4.27;;;22.20;93.00;;;;;;5008624;28;20162;-89
2023/09/14 05:59:23;;;;;;;6.43;4.53;;;22.10;92.90;;;;;;5016819;28;20189;-89
2023/09/14 06:01:50;;;;;;;9.77;4.60;;;22.10;92.90;;;;;;5036539;28;20687;-89
2023/09/14 06:04:17;;;;;;;12.13;4.87;;;22.10;93.00;;;;;;4991794;28;20451;-89
2023/09/14 06:06:42;;;;;;;10.73;4.93;;;22.10;93.00;;;;;;4988930;28;20247;-89
2023/09/14 06:09:08;;;;;;;8.70;4.80;;;22.10;93.00;;;;;;5001604;28;20177;-89
2023/09/14 06:11:34;;;;;;;8.23;4.93;;;22.10;93.00;;;;;;5005106;28;20243;-89
2023/09/14 06:14:00;;;;;;;13.63;5.47;;;22.10;93.00;;;;;;5003769;28;20509;-89
2023/09/14 06:16:26;;;;;;;7.07;4.50;;;22.10;93.10;;;;;;4989868;28;20169;-89
2023/09/14 06:18:52;;;;;;;7.87;4.70;;;22.10;93.10;;;;;;4997761;28;20180;-90
2023/09/14 06:21:18;;;;;;;7.73;5.10;;;22.10;93.10;;;;;;4988911;28;20448;-90
2023/09/14 06:23:43;;;;;;;7.43;4.73;;;22.10;93.10;;;;;;5019132;28;20279;-90
2023/09/14 06:26:09;;;;;;;8.00;4.70;;;22.10;93.10;;;;;;4986962;28;20553;-90
2023/09/14 06:28:35;;;;;;;7.07;4.60;;;22.10;93.10;;;;;;4996530;28;20565;-90
2023/09/14 06:31:00;;;;;;;10.17;5.10;;;22.10;93.10;;;;;;4985468;28;20828;-90
2023/09/14 06:33:26;;;;;;;8.87;4.77;;;22.10;93.10;;;;;;4996976;28;20401;-90
2023/09/14 06:35:52;;;;;;;8.33;4.70;;;22.10;93.20;;;;;;5020566;28;20170;-90
2023/09/14 06:38:18;;;;;;;7.77;4.83;;;22.10;93.20;;;;;;4992065;28;20232;-90
2023/09/14 06:40:44;;;;;;;6.90;4.63;;;22.10;93.20;;;;;;4996067;28;20218;-90
2023/09/14 06:43:10;;;;;;;5.63;4.33;;;22.10;93.20;;;;;;5002627;28;20184;-90
2023/09/14 06:45:35;;;;;;;8.23;4.80;;;22.10;93.20;;;;;;4996403;28;20185;-90
2023/09/14 06:48:01;;;;;;;7.50;4.23;;;22.10;93.20;;;;;;4991398;28;20337;-90
2023/09/14 06:50:28;;;;;;;7.07;4.33;;;22.10;93.20;;;;;;5015433;28;20274;-90
2023/09/14 06:52:54;;;;;;;8.20;4.53;;;22.10;93.20;;;;;;4991551;28;20165;-90
2023/09/14 06:55:20;;;;;;;6.73;4.30;;;22.10;93.20;;;;;;5001407;28;20392;-90
2023/09/14 06:57:46;;;;;;;7.23;4.07;;;22.10;93.20;;;;;;4990910;28;20178;-90
2023/09/14 07:00:16;;;;;;;7.70;4.30;;;22.10;93.20;;;;;;4997729;28;20325;-90
2023/09/14 07:02:42;;;;;;;5.63;3.90;;;22.10;93.30;;;;;;4988384;28;20181;-90
2023/09/14 07:05:10;;;;;;;6.97;4.27;;;22.10;93.20;;;;;;4996242;28;20497;-90
2023/09/14 07:07:37;;;;;;;5.70;4.13;;;22.10;93.20;;;;;;5010162;28;20177;-91
2023/09/14 07:10:13;;;;;;;5.53;3.60;;;22.10;93.20;;;;;;5014745;28;20166;-90
2023/09/14 07:12:38;;;;;;;6.93;3.80;;;22.10;93.20;;;;;;5026327;28;20168;-90
2023/09/14 07:15:05;;;;;;;7.00;3.80;;;22.10;93.30;;;;;;4995829;28;20210;-90
2023/09/14 07:17:30;;;;;;;5.43;4.00;;;22.10;93.20;;;;;;4991290;28;20178;-90
2023/09/14 07:19:56;;;;;;;4.93;3.63;;;22.10;93.30;;;;;;5018175;28;20246;-90
2023/09/14 07:22:22;;;;;;;4.37;3.73;;;22.10;93.20;;;;;;5026922;28;20216;-90
2023/09/14 07:24:47;;;;;;;5.60;3.50;;;22.10;93.20;;;;;;5011264;28;20586;-90
2023/09/14 07:27:14;;;;;;;4.43;3.27;;;22.10;93.20;;;;;;5013520;28;20173;-90
2023/09/14 07:29:40;;;;;;;6.63;3.90;;;22.10;93.20;;;;;;5006856;28;20199;-90
2023/09/14 07:32:06;;;;;;;5.03;3.60;;;22.10;93.20;;;;;;5003582;28;20201;-90
2023/09/14 07:34:32;;;;;;;5.47;3.37;;;22.10;93.20;;;;;;5038429;28;20544;-90
2023/09/14 07:36:57;;;;;;;6.17;3.73;;;22.10;93.10;;;;;;4998705;28;20252;-91
2023/09/14 07:39:23;;;;;;;4.00;3.23;;;22.20;93.10;;;;;;5024160;28;20181;-90
2023/09/14 07:41:55;;;;;;;4.20;3.20;;;22.20;93.10;;;;;;4998028;28;20255;-90
2023/09/14 07:44:20;;;;;;;6.07;3.53;;;22.20;93.00;;;;;;4990652;28;20280;-90
2023/09/14 07:46:46;;;;;;;5.97;3.67;;;22.20;93.00;;;;;;4998562;28;20299;-91
2023/09/14 07:49:12;;;;;;;3.87;3.30;;;22.20;92.90;;;;;;5009503;28;20413;-91
2023/09/14 07:51:38;;;;;;;4.63;3.40;;;22.30;92.90;;;;;;5020648;28;20533;-91
2023/09/14 07:54:03;;;;;;;4.60;3.43;;;22.30;92.80;;;;;;4991767;28;20445;-91
2023/09/14 07:56:29;;;;;;;4.10;3.17;;;22.30;92.80;;;;;;5002120;28;20336;-90
2023/09/14 07:59:07;;;;;;;3.53;3.07;;;22.30;92.80;;;;;;4988821;28;20410;-90
2023/09/14 08:01:32;;;;;;;5.33;3.30;;;22.30;92.70;;;;;;4999888;28;20203;-91
2023/09/14 08:03:58;;;;;;;4.07;2.97;;;22.30;92.80;;;;;;5009783;28;20488;-91
2023/09/14 08:06:25;;;;;;;4.33;2.93;;;22.30;92.70;;;;;;4999539;28;20174;-90
2023/09/14 08:08:53;;;;;;;5.50;3.07;;;22.40;92.70;;;;;;5002148;28;20177;-90
2023/09/14 08:11:19;;;;;;;4.27;3.17;;;22.40;92.60;;;;;;4993926;28;20291;-90
2023/09/14 08:13:44;;;;;;;4.23;3.10;;;22.40;92.50;;;;;;5027085;28;20284;-90
2023/09/14 08:16:10;;;;;;;4.87;3.40;;;22.50;92.50;;;;;;4991374;28;20227;-91
2023/09/14 08:18:35;;;;;;;4.33;3.37;;;22.50;92.40;;;;;;4998974;28;20594;-90
2023/09/14 08:21:01;;;;;;;3.43;3.00;;;22.60;92.10;;;;;;5004026;28;20234;-90
2023/09/14 08:23:29;;;;;;;5.47;3.17;;;22.70;92.00;;;;;;5018053;28;20177;-90
2023/09/14 08:25:54;;;;;;;3.73;3.33;;;22.80;91.80;;;;;;4992455;28;20200;-90
2023/09/14 08:28:20;;;;;;;4.13;3.03;;;22.90;91.40;;;;;;5000859;28;20173;-90
2023/09/14 08:30:47;;;;;;;3.53;2.97;;;23.00;91.10;;;;;;4987178;28;20201;-90
2023/09/14 08:33:13;;;;;;;3.47;2.90;;;23.20;90.70;;;;;;4999463;28;20182;-90
2023/09/14 08:35:39;;;;;;;3.03;2.73;;;23.30;90.40;;;;;;4987307;28;20192;-90
2023/09/14 08:38:06;;;;;;;3.25;2.67;;;23.40;90.10;;;;;;5000622;28;20169;-91
2023/09/14 08:40:33;;;;;;;4.55;2.88;;;23.60;89.40;;;;;;5010466;28;20789;-91
2023/09/14 08:43:00;;;;;;;3.63;3.10;;;23.90;86.90;;;;;;5005079;28;20259;-91
2023/09/14 08:45:32;;;;;;;5.10;3.03;;;24.10;85.90;;;;;;5006379;28;20435;-91
2023/09/14 08:48:01;;;;;;;4.40;3.20;;;24.30;84.60;;;;;;4992492;28;20190;-90
2023/09/14 08:50:30;;;;;;;3.60;2.95;;;24.20;84.30;;;;;;5002341;28;20300;-91
2023/09/14 08:52:56;;;;;;;3.53;2.60;;;24.10;85.00;;;;;;4989415;28;20177;-91
2023/09/14 08:55:24;;;;;;;3.53;2.92;;;24.00;86.30;;;;;;4991763;28;20182;-91
2023/09/14 08:57:51;;;;;;;3.78;2.70;;;23.90;86.00;;;;;;4994361;28;20199;-90
2023/09/14 09:00:17;;;;;;;3.37;2.80;;;23.80;86.70;;;;;;4993189;28;20545;-91
2023/09/14 09:02:51;;;;;;;2.90;2.60;;;23.60;88.10;;;;;;5009408;28;20208;-91
2023/09/14 09:05:25;;;;;;;3.70;2.80;;;23.40;89.20;;;;;;4998620;28;20170;-91
2023/09/14 09:07:52;;;;;;;4.27;2.73;;;23.30;89.90;;;;;;4976895;28;20656;-91
2023/09/14 09:10:22;;;;;;;3.63;2.80;;;23.20;90.10;;;;;;4998347;28;20181;-91
2023/09/14 09:12:54;;;;;;;3.70;2.87;;;23.10;90.30;;;;;;4990582;28;20290;-91
2023/09/14 09:15:22;;;;;;;3.13;2.70;;;23.10;90.50;;;;;;5029269;28;20206;-91
2023/09/14 09:18:03;;;;;;;3.60;2.87;;;23.10;90.50;;;;;;4986541;28;20165;-91
2023/09/14 09:20:30;;;;;;;3.00;2.50;;;23.20;90.10;;;;;;4987059;28;20343;-91
2023/09/14 09:22:59;;;;;;;3.17;2.77;;;23.30;90.10;;;;;;5001482;28;20174;-91
2023/09/14 09:25:26;;;;;;;3.77;2.70;;;23.20;90.20;;;;;;4997555;28;20539;-91
2023/09/14 09:27:59;;;;;;;3.43;2.53;;;23.20;90.40;;;;;;4990018;28;20177;-91
2023/09/14 09:30:35;;;;;;;3.63;2.80;;;23.20;90.50;;;;;;4999725;28;20196;-91
2023/09/14 09:33:02;;;;;;;3.60;2.70;;;23.10;90.50;;;;;;4991625;28;20263;-91
2023/09/14 09:35:29;;;;;;;3.97;2.63;;;23.20;90.30;;;;;;4999056;28;20170;-91
2023/09/14 09:37:59;;;;;;;2.87;2.40;;;23.30;90.10;;;;;;5008422;28;20284;-91
2023/09/14 09:40:27;;;;;;;3.87;2.70;;;23.20;90.10;;;;;;5002083;28;20276;-91
2023/09/14 09:42:54;;;;;;;3.80;2.83;;;23.20;90.20;;;;;;5005829;28;20458;-91
2023/09/14 09:45:23;;;;;;;3.30;2.53;;;23.10;90.20;;;;;;4991048;28;20286;-90
2023/09/14 09:47:49;;;;;;;3.10;2.53;;;23.10;90.30;;;;;;5005677;28;20264;-91
2023/09/14 09:50:19;;;;;;;4.77;2.87;;;23.10;90.30;;;;;;5025006;28;20276;-91
2023/09/14 09:52:54;;;;;;;3.23;2.80;;;23.10;90.40;;;;;;5008478;28;20173;-91
2023/09/14 09:55:26;;;;;;;3.23;2.40;;;23.10;90.40;;;;;;4985407;28;20173;-91
2023/09/14 09:57:59;;;;;;;4.13;2.30;;;23.10;90.40;;;;;;4970280;28;20273;-91
2023/09/14 10:00:37;;;;;;;3.33;2.70;;;23.00;90.40;;;;;;5012283;28;20166;-91
2023/09/14 10:03:03;;;;;;;3.63;2.50;;;23.00;90.40;;;;;;4985377;28;20243;-91
2023/09/14 10:05:31;;;;;;;3.90;2.47;;;23.10;90.40;;;;;;5003501;28;20236;-91
2023/09/14 10:07:58;;;;;;;3.50;2.70;;;23.00;90.40;;;;;;5002435;28;20679;-90
2023/09/14 10:10:29;;;;;;;3.57;2.40;;;23.00;90.40;;;;;;5014934;28;20197;-91
2023/09/14 10:12:55;;;;;;;3.33;2.60;;;23.00;90.40;;;;;;4995815;28;20170;-91
2023/09/14 10:15:27;;;;;;;3.43;2.50;;;23.00;90.30;;;;;;4998898;28;20165;-91
2023/09/14 10:17:57;;;;;;;3.40;2.43;;;23.00;90.30;;;;;;4997535;28;20165;-91
2023/09/14 10:20:26;;;;;;;3.80;2.50;;;23.00;90.40;;;;;;4996817;28;20169;-90
2023/09/14 10:22:53;;;;;;;3.00;2.30;;;23.10;90.50;;;;;;4998960;28;20361;-90
2023/09/14 10:25:20;;;;;;;4.43;2.77;;;23.10;90.80;;;;;;4994129;28;20170;-90
2023/09/14 10:27:46;;;;;;;3.33;2.27;;;23.10;90.70;;;;;;4998374;28;20280;-90
2023/09/14 10:30:19;;;;;;;3.50;2.73;;;23.10;90.40;;;;;;4991381;28;20272;-90
2023/09/14 10:32:54;;;;;;;3.00;2.40;;;23.10;90.30;;;;;;5006831;28;20275;-91
2023/09/14 10:35:21;;;;;;;5.33;2.87;;;23.10;90.40;;;;;;5005762;28;20173;-91
2023/09/14 10:37:50;;;;;;;3.83;2.50;;;23.10;90.40;;;;;;4999196;28;20433;-91
2023/09/14 10:40:17;;;;;;;5.33;2.60;;;23.10;90.40;;;;;;5024897;28;20222;-90
2023/09/14 10:42:43;;;;;;;4.10;2.67;;;23.10;90.40;;;;;;5021913;28;20213;-91
2023/09/14 10:45:11;;;;;;;3.77;2.50;;;23.10;90.40;;;;;;5010696;28;20200;-91
2023/09/14 10:47:41;;;;;;;2.80;2.23;;;23.10;90.30;;;;;;5025899;28;20174;-90
2023/09/14 10:50:09;;;;;;;3.37;2.40;;;23.10;90.30;;;;;;4991128;28;20248;-91
2023/09/14 10:52:35;;;;;;;3.87;2.63;;;23.10;90.40;;;;;;5001534;28;20282;-90
2023/09/14 10:55:07;;;;;;;2.53;2.10;;;23.10;90.40;;;;;;4987864;28;20458;-91
2023/09/14 10:57:35;;;;;;;3.27;2.40;;;23.10;90.40;;;;;;4998945;28;20279;-91
2023/09/14 11:00:07;;;;;;;3.93;2.27;;;23.10;90.40;;;;;;4987180;28;20181;-91
2023/09/14 11:02:39;;;;;;;3.93;2.37;;;23.10;90.40;;;;;;4999267;28;20184;-91
2023/09/14 11:05:19;;;;;;;3.17;2.30;;;23.10;90.40;;;;;;5003693;28;20169;-91
2023/09/14 11:07:49;;;;;;;4.67;2.40;;;23.10;90.40;;;;;;4994415;28;20599;-91
2023/09/14 11:10:17;;;;;;;2.80;2.23;;;23.10;90.40;;;;;;4981690;28;20182;-91
2023/09/14 11:12:45;;;;;;;2.73;2.13;;;23.10;90.30;;;;;;5006101;28;20396;-91
2023/09/14 11:15:34;;;;;;;3.57;2.33;;;23.10;90.40;;;;;;5003187;28;20241;-91
2023/09/14 11:17:59;;;;;;;4.33;2.33;;;23.10;90.40;;;;;;4985909;28;20228;-91
2023/09/14 11:20:25;;;;;;;4.37;2.50;;;23.10;90.40;;;;;;5003076;28;20177;-91
2023/09/14 11:22:52;;;;;;;3.23;2.17;;;23.10;90.30;;;;;;5030279;28;20185;-91
2023/09/14 11:25:33;;;;;;;3.43;2.30;;;23.10;90.40;;;;;;4984163;28;20239;-91
2023/09/14 11:28:00;;;;;;;4.17;2.27;;;23.10;90.40;;;;;;4987453;28;20531;-91
2023/09/14 11:30:27;;;;;;;3.73;2.40;;;23.10;90.30;;;;;;5003935;28;20204;-91
2023/09/14 11:32:54;;;;;;;3.13;2.33;;;23.10;90.20;;;;;;4991488;28;20285;-91
2023/09/14 11:35:47;;;;;;;3.57;2.27;;;23.20;90.20;;;;;;4991918;28;20182;-91
2023/09/14 11:38:23;;;;;;;3.87;2.40;;;23.20;90.20;;;;;;4989759;28;20563;-91
2023/09/14 11:40:49;;;;;;;3.73;2.53;;;23.20;90.10;;;;;;4996977;28;20179;-91
2023/09/14 11:43:28;;;;;;;3.77;2.30;;;23.20;90.10;;;;;;4996894;28;20181;-91
2023/09/14 11:46:04;;;;;;;3.63;2.30;;;23.20;90.20;;;;;;4999856;28;20283;-91
2023/09/14 11:48:35;;;;;;;2.30;2.10;;;23.20;90.10;;;;;;5000060;28;20671;-91
2023/09/14 11:51:24;;;;;;;2.43;2.10;;;23.20;90.10;;;;;;4994055;28;20200;-91
2023/09/14 11:54:12;;;;;;;3.20;1.93;;;23.20;90.00;;;;;;4994578;28;20222;-90
2023/09/14 11:56:38;;;;;;;3.00;2.23;;;23.20;89.70;;;;;;4986015;28;20300;-91
2023/09/14 11:59:04;;;;;;;2.77;2.20;;;23.20;89.50;;;;;;4991715;28;20522;-91
2023/09/14 12:01:34;;;;;;;2.73;2.00;;;23.20;89.80;;;;;;4988558;28;20587;-91
2023/09/14 12:04:02;;;;;;;3.13;2.03;;;23.20;89.70;;;;;;4991201;28;20181;-91
2023/09/14 12:06:28;;;;;;;2.80;2.13;;;23.20;89.60;;;;;;4989986;28;20173;-91
2023/09/14 12:08:54;;;;;;;3.00;2.10;;;23.20;89.70;;;;;;5005966;28;20630;-91
2023/09/14 12:11:22;;;;;;;2.57;2.00;;;23.20;89.30;;;;;;4997653;28;20197;-90
2023/09/14 12:13:51;;;;;;;3.50;2.10;;;23.20;89.50;;;;;;5040013;28;20169;-90
2023/09/14 12:16:25;;;;;;;3.27;2.10;;;23.20;89.40;;;;;;5029379;28;20184;-91
2023/09/14 12:18:52;;;;;;;2.57;1.83;;;23.20;89.50;;;;;;4984937;28;20216;-91
2023/09/14 12:21:19;;;;;;;3.27;2.30;;;23.20;89.20;;;;;;4999885;28;20408;-91
2023/09/14 12:23:49;;;;;;;2.73;2.10;;;23.20;89.30;;;;;;4991562;28;20185;-90
2023/09/14 12:26:28;;;;;;;3.10;2.10;;;23.30;89.50;;;;;;4999489;28;20173;-91
2023/09/14 12:29:04;;;;;;;3.10;2.20;;;23.30;89.50;;;;;;4990191;28;20184;-91
2023/09/14 12:31:31;;;;;;;3.10;2.13;;;23.30;89.30;;;;;;4999772;28;20295;-91
2023/09/14 12:33:58;;;;;;;2.87;1.90;;;23.30;88.90;;;;;;4987025;28;20247;-91
2023/09/14 12:36:24;;;;;;;2.97;2.00;;;23.30;88.90;;;;;;4997243;28;20272;-91
2023/09/14 12:38:50;;;;;;;3.10;2.10;;;23.30;88.90;;;;;;4985764;28;20196;-91
2023/09/14 12:41:16;;;;;;;2.70;2.10;;;23.30;88.70;;;;;;4993850;28;20177;-91
2023/09/14 12:43:43;;;;;;;2.37;1.80;;;23.30;88.80;;;;;;5003743;28;20177;-90
2023/09/14 12:46:10;;;;;;;2.87;1.83;;;23.30;88.70;;;;;;5018083;28;20184;-90
2023/09/14 12:48:35;;;;;;;1.77;1.67;;;23.30;88.70;;;;;;4985648;28;20173;-90
2023/09/14 12:51:07;;;;;;;2.53;2.20;;;23.30;88.60;;;;;;4997105;28;20211;-90
2023/09/14 12:53:47;;;;;;;2.67;1.77;;;23.30;88.50;;;;;;5005895;28;20225;-91
2023/09/14 12:56:14;;;;;;;2.97;2.00;;;23.30;88.10;;;;;;4997245;28;20539;-90